Rome, Italy
Current Conditions -  °F | °C
As of 2:50 PM on Saturday 25 Oct 2014 (Local Time) from LIRU Reporting Station
Clear Clear  
Wind Chill: 70°   Ceiling: Unl
Heat Index: 70°   Visibility: 6mi
Dew Point: 41°   Wind: 3mph
Humidity: 35%   Direction: NA
Pressure: 30"   Gusts: NA
Location:  41.9°N, 12.48°E
Report Text: LIRU 251250Z VRB03KT CAVOK 21/05 Q1016
Loading
Personal Weather Stations






























Interactive Weather Map New forecast layout! Learn more

10-Day Weather Forecast

Advertisements
Track Severe Weather on mobile